Stolt Jade — ZCSQ4 — position and weather

sailwx.info

Track history (hours):
 
Tides and Currents Weather Stations Pressure Air Temp Water Temp Dewpoint Dewpoint Depression Visibility Wind Speed Wind Dir Waves Ship Positions

Stolt Jade

Last reported at 2014-Dec-14 02:31 UTC. Time now 2014-Dec-18 18:15 UTC.
Position S 34°06' E 026°47'.

Length 175 m; draft 10 m.

Type: Ship (hazmat cat B). MMSI: 319439000.

Date/timePositionNaut miles runAvg speedWind from/ knotsBaromVisibWave heightAir tempDewpointWater temp
2014-Dec-14 02:31S 34°06' E 026°47'  
2014-Dec-11 03:10S 29°14' E 032°00'2412.5
2014-Dec-11 01:16S 29°32' E 031°43'1014.7
2014-Dec-11 00:33S 29°37' E 031°32'1514.8
2014-Dec-10 23:33S 29°46' E 031°18'1313.5
2014-Dec-10 22:33S 29°51' E 031°04'2 1.9
2014-Dec-10 21:23S 29°53' E 031°02'0 0.0
2014-Dec-10 20:29S 29°53' E 031°02'0 0.0
2014-Dec-10 19:29S 29°53' E 031°02'0 0.0
2014-Dec-10 18:29S 29°53' E 031°02'0 0.0
2014-Dec-10 17:23S 29°53' E 031°02'0 0.0
2014-Dec-10 16:23S 29°53' E 031°02'0 0.0
2014-Dec-10 15:29S 29°53' E 031°02'0 0.0
2014-Dec-10 14:29S 29°53' E 031°02'0 0.0
2014-Dec-10 13:29S 29°53' E 031°02'0 0.0
2014-Dec-10 12:29S 29°53' E 031°02'0 0.0
2014-Dec-10 11:29S 29°53' E 031°02'0 0.0
2014-Dec-10 10:29S 29°53' E 031°02'0 0.0
2014-Dec-10 09:29S 29°53' E 031°02'0 0.0
2014-Dec-10 08:29S 29°53' E 031°02'0 0.0
2014-Dec-10 07:29S 29°53' E 031°02'0 0.0
2014-Dec-10 06:29S 29°53' E 031°02'0 0.0
2014-Dec-10 05:29S 29°53' E 031°02'0 0.0
2014-Dec-10 04:29S 29°53' E 031°02'0 0.0
2014-Dec-10 03:29S 29°53' E 031°02'0 0.0
2014-Dec-10 02:29S 29°53' E 031°02'0 0.0
2014-Dec-10 01:29S 29°53' E 031°02'0 0.0
2014-Dec-10 00:29S 29°53' E 031°02'0 0.0
2014-Dec-09 23:29S 29°53' E 031°02'0 0.0
2014-Dec-09 22:29S 29°53' E 031°02'0 0.0
2014-Dec-09 21:29S 29°53' E 031°02'0 0.0
2014-Dec-09 20:29S 29°53' E 031°02'0 0.0
2014-Dec-09 19:29S 29°53' E 031°02'0 0.0
2014-Dec-09 18:29S 29°53' E 031°02'0 0.0
2014-Dec-09 17:29S 29°53' E 031°02'0 0.0
2014-Dec-09 16:29S 29°53' E 031°02'0 0.0
2014-Dec-09 15:29S 29°53' E 031°02'0 0.0
2014-Dec-09 14:29S 29°53' E 031°02'0 0.0
2014-Dec-09 13:29S 29°53' E 031°02'0 0.0
2014-Dec-09 12:29S 29°53' E 031°02'0 0.0
2014-Dec-09 11:29S 29°53' E 031°02'0 0.0
2014-Dec-09 10:29S 29°53' E 031°02'0 0.0
2014-Dec-09 09:29S 29°53' E 031°02'5 5.5
2014-Dec-09 08:33S 29°49' E 031°06'1 0.9
2014-Dec-09 07:33S 29°49' E 031°07'3 2.6
2014-Dec-09 06:33S 29°47' E 031°09'2 2.2
2014-Dec-09 05:29S 29°45' E 031°11'0 0.1
2014-Dec-09 04:29S 29°45' E 031°11'0 0.0
2014-Dec-09 03:29S 29°45' E 031°11'0 0.0
2014-Dec-09 02:29S 29°45' E 031°11'0 0.0
2014-Dec-09 01:29S 29°45' E 031°11'0 0.0
2014-Dec-09 00:23S 29°45' E 031°11'0 0.0
2014-Dec-08 23:29S 29°45' E 031°11'0 0.0
2014-Dec-08 22:29S 29°45' E 031°11'0 0.0
2014-Dec-08 21:29S 29°45' E 031°11'0 0.0
2014-Dec-08 20:29S 29°45' E 031°11'0 0.0
2014-Dec-08 19:29S 29°45' E 031°11'0 0.0
2014-Dec-08 18:29S 29°45' E 031°11'0 0.0
2014-Dec-08 17:29S 29°45' E 031°11'0 0.0
2014-Dec-08 16:29S 29°45' E 031°11'0 0.0
2014-Dec-08 15:29S 29°45' E 031°11'0 0.0
2014-Dec-08 14:29S 29°45' E 031°11'0 0.0
2014-Dec-08 13:29S 29°45' E 031°11'0 0.0
2014-Dec-08 12:29S 29°45' E 031°11'0 0.0
2014-Dec-08 11:29S 29°45' E 031°11'0 0.0
2014-Dec-08 10:29S 29°45' E 031°11'0 0.0
2014-Dec-08 09:29S 29°45' E 031°11'0 0.0
2014-Dec-08 08:29S 29°45' E 031°11'0 0.0
2014-Dec-08 07:29S 29°45' E 031°11'0 0.0
2014-Dec-08 06:29S 29°45' E 031°11'4 4.8
2014-Dec-08 05:34S 29°46' E 031°15'1111.2
2014-Dec-08 04:33S 29°45' E 031°28'1515.2
2014-Dec-08 03:33S 29°42' E 031°45'  
Track history (hours):
 
Tides and Currents Weather Stations Pressure Air Temp Water Temp Dewpoint Dewpoint Depression Visibility Wind Speed Wind Dir Waves Ship Positions

Stolt Jade

Last reported at 2014-Dec-14 02:31 UTC. Time now 2014-Dec-18 18:15 UTC.
Position S 34°06' E 026°47'.

Length 175 m; draft 10 m.

Type: Ship (hazmat cat B). MMSI: 319439000.

Date/timePositionNaut miles runAvg speedWind from/ knotsBaromVisibWave heightAir tempDewpointWater temp
2014-Dec-14 02:31S 34°06' E 026°47'  
2014-Dec-11 03:10S 29°14' E 032°00'2412.5
2014-Dec-11 01:16S 29°32' E 031°43'1014.7
2014-Dec-11 00:33S 29°37' E 031°32'1514.8
2014-Dec-10 23:33S 29°46' E 031°18'1313.5
2014-Dec-10 22:33S 29°51' E 031°04'2 1.9
2014-Dec-10 21:23S 29°53' E 031°02'0 0.0
2014-Dec-10 20:29S 29°53' E 031°02'0 0.0
2014-Dec-10 19:29S 29°53' E 031°02'0 0.0
2014-Dec-10 18:29S 29°53' E 031°02'0 0.0
2014-Dec-10 17:23S 29°53' E 031°02'0 0.0
2014-Dec-10 16:23S 29°53' E 031°02'0 0.0
2014-Dec-10 15:29S 29°53' E 031°02'0 0.0
2014-Dec-10 14:29S 29°53' E 031°02'0 0.0
2014-Dec-10 13:29S 29°53' E 031°02'0 0.0
2014-Dec-10 12:29S 29°53' E 031°02'0 0.0
2014-Dec-10 11:29S 29°53' E 031°02'0 0.0
2014-Dec-10 10:29S 29°53' E 031°02'0 0.0
2014-Dec-10 09:29S 29°53' E 031°02'0 0.0
2014-Dec-10 08:29S 29°53' E 031°02'0 0.0
2014-Dec-10 07:29S 29°53' E 031°02'0 0.0
2014-Dec-10 06:29S 29°53' E 031°02'0 0.0
2014-Dec-10 05:29S 29°53' E 031°02'0 0.0
2014-Dec-10 04:29S 29°53' E 031°02'0 0.0
2014-Dec-10 03:29S 29°53' E 031°02'0 0.0
2014-Dec-10 02:29S 29°53' E 031°02'0 0.0
2014-Dec-10 01:29S 29°53' E 031°02'0 0.0
2014-Dec-10 00:29S 29°53' E 031°02'0 0.0
2014-Dec-09 23:29S 29°53' E 031°02'0 0.0
2014-Dec-09 22:29S 29°53' E 031°02'0 0.0
2014-Dec-09 21:29S 29°53' E 031°02'0 0.0
2014-Dec-09 20:29S 29°53' E 031°02'0 0.0
2014-Dec-09 19:29S 29°53' E 031°02'0 0.0
2014-Dec-09 18:29S 29°53' E 031°02'0 0.0
2014-Dec-09 17:29S 29°53' E 031°02'0 0.0
2014-Dec-09 16:29S 29°53' E 031°02'0 0.0
2014-Dec-09 15:29S 29°53' E 031°02'0 0.0
2014-Dec-09 14:29S 29°53' E 031°02'0 0.0
2014-Dec-09 13:29S 29°53' E 031°02'0 0.0
2014-Dec-09 12:29S 29°53' E 031°02'0 0.0
2014-Dec-09 11:29S 29°53' E 031°02'0 0.0
2014-Dec-09 10:29S 29°53' E 031°02'0 0.0
2014-Dec-09 09:29S 29°53' E 031°02'5 5.5
2014-Dec-09 08:33S 29°49' E 031°06'1 0.9
2014-Dec-09 07:33S 29°49' E 031°07'3 2.6
2014-Dec-09 06:33S 29°47' E 031°09'2 2.2
2014-Dec-09 05:29S 29°45' E 031°11'0 0.1
2014-Dec-09 04:29S 29°45' E 031°11'0 0.0
2014-Dec-09 03:29S 29°45' E 031°11'0 0.0
2014-Dec-09 02:29S 29°45' E 031°11'0 0.0
2014-Dec-09 01:29S 29°45' E 031°11'0 0.0
2014-Dec-09 00:23S 29°45' E 031°11'0 0.0
2014-Dec-08 23:29S 29°45' E 031°11'0 0.0
2014-Dec-08 22:29S 29°45' E 031°11'0 0.0
2014-Dec-08 21:29S 29°45' E 031°11'0 0.0
2014-Dec-08 20:29S 29°45' E 031°11'0 0.0
2014-Dec-08 19:29S 29°45' E 031°11'0 0.0
2014-Dec-08 18:29S 29°45' E 031°11'0 0.0
2014-Dec-08 17:29S 29°45' E 031°11'0 0.0
2014-Dec-08 16:29S 29°45' E 031°11'0 0.0
2014-Dec-08 15:29S 29°45' E 031°11'0 0.0
2014-Dec-08 14:29S 29°45' E 031°11'0 0.0
2014-Dec-08 13:29S 29°45' E 031°11'0 0.0
2014-Dec-08 12:29S 29°45' E 031°11'0 0.0
2014-Dec-08 11:29S 29°45' E 031°11'0 0.0
2014-Dec-08 10:29S 29°45' E 031°11'0 0.0
2014-Dec-08 09:29S 29°45' E 031°11'0 0.0
2014-Dec-08 08:29S 29°45' E 031°11'0 0.0
2014-Dec-08 07:29S 29°45' E 031°11'0 0.0
2014-Dec-08 06:29S 29°45' E 031°11'4 4.8
2014-Dec-08 05:34S 29°46' E 031°15'1111.2
2014-Dec-08 04:33S 29°45' E 031°28'1515.2
2014-Dec-08 03:33S 29°42' E 031°45'  

Dump ship's entire track history